createdAt,value
2022-11-21T00:01:40.369Z,30.73
2022-11-21T00:04:42.710Z,24.30
2022-11-21T00:07:50.204Z,32.88
2022-11-21T00:10:52.862Z,34.40
2022-11-21T00:13:55.182Z,33.35
2022-11-21T00:16:58.075Z,32.97
2022-11-21T00:20:00.574Z,25.83
2022-11-21T00:23:03.617Z,32.47
2022-11-21T00:26:10.219Z,32.67
2022-11-21T00:29:12.614Z,33.92
2022-11-21T00:32:15.436Z,35.47
2022-11-21T00:35:17.753Z,32.28
2022-11-21T00:38:20.202Z,31.00
2022-11-21T00:41:23.806Z,30.80
2022-11-21T00:44:26.922Z,30.80
2022-11-21T00:47:29.935Z,33.05
2022-11-21T00:50:33.098Z,29.98
2022-11-21T00:53:35.556Z,32.55
2022-11-21T00:56:38.201Z,31.75
2022-11-21T00:59:40.641Z,31.65
2022-11-21T01:02:42.999Z,31.70
2022-11-21T01:05:45.415Z,32.67
2022-11-21T01:08:47.956Z,31.58
2022-11-21T01:11:50.589Z,30.70
2022-11-21T01:14:53.417Z,31.27
2022-11-21T01:17:55.810Z,26.13
2022-11-21T01:21:21.377Z,29.30
2022-11-21T01:24:24.431Z,31.88
2022-11-21T01:27:27.607Z,24.25
2022-11-21T01:30:30.086Z,24.73
2022-11-21T01:33:34.294Z,31.58
2022-11-21T01:36:37.915Z,33.30
2022-11-21T01:39:40.509Z,37.30
2022-11-21T01:43:04.581Z,36.35
2022-11-21T01:46:10.366Z,37.92
2022-11-21T01:49:25.449Z,41.30
2022-11-21T01:52:31.977Z,39.65
2022-11-21T01:55:35.526Z,38.63
2022-11-21T01:58:39.497Z,37.00
2022-11-21T02:04:45.708Z,40.80
2022-11-21T02:07:49.638Z,30.77
2022-11-21T02:14:01.330Z,42.03
2022-11-21T02:17:06.762Z,39.55
2022-11-21T02:20:12.366Z,41.15
2022-11-21T02:23:20.994Z,39.70
2022-11-21T02:26:23.862Z,43.28
2022-11-21T02:29:26.853Z,45.67
2022-11-21T02:32:35.304Z,44.78
2022-11-21T02:35:37.988Z,42.92
2022-11-21T02:38:40.542Z,34.40
2022-11-21T02:42:25.150Z,45.55
2022-11-21T02:45:32.725Z,44.53
2022-11-21T02:48:37.253Z,46.28
2022-11-21T02:51:39.747Z,47.58
2022-11-21T02:54:42.888Z,44.40
2022-11-21T02:57:46.689Z,48.08
2022-11-21T03:00:50.891Z,46.65
2022-11-21T03:03:53.495Z,45.15
2022-11-21T03:06:56.034Z,44.00
2022-11-21T03:09:58.654Z,46.47
2022-11-21T03:13:01.692Z,47.92
2022-11-21T03:16:04.741Z,36.40
2022-11-21T03:19:10.369Z,51.20
2022-11-21T03:22:17.208Z,47.92
2022-11-21T03:25:20.425Z,50.25
2022-11-21T03:28:23.605Z,50.17
2022-11-21T03:31:27.499Z,36.58
2022-11-21T03:37:33.796Z,47.17
2022-11-21T03:40:36.069Z,48.40
2022-11-21T03:43:38.331Z,48.47
2022-11-21T03:46:42.852Z,47.58
2022-11-21T03:49:45.355Z,48.53
2022-11-21T03:52:47.724Z,49.45
2022-11-21T03:55:50.790Z,48.38
2022-11-21T03:58:56.825Z,50.58
2022-11-21T04:02:00.090Z,50.08
2022-11-21T04:05:02.975Z,51.00
2022-11-21T04:08:05.584Z,49.80
2022-11-21T04:11:08.303Z,52.40
2022-11-21T04:14:10.676Z,48.33
2022-11-21T04:17:13.198Z,50.30
2022-11-21T04:20:16.666Z,48.78
2022-11-21T04:23:19.294Z,54.22
2022-11-21T04:26:21.867Z,49.63
2022-11-21T04:29:24.475Z,61.47
2022-11-21T04:32:27.444Z,40.03
2022-11-21T04:35:30.219Z,51.47
2022-11-21T04:38:32.662Z,49.03
2022-11-21T04:41:35.544Z,51.00
2022-11-21T04:44:38.117Z,45.15
2022-11-21T04:47:41.978Z,53.95
2022-11-21T04:50:46.358Z,53.85
2022-11-21T04:53:48.756Z,48.05
2022-11-21T04:56:51.988Z,52.55
2022-11-21T04:59:54.709Z,55.60
2022-11-21T05:03:03.011Z,58.47
2022-11-21T05:06:05.519Z,59.35
2022-11-21T05:09:08.790Z,65.15
2022-11-21T05:15:33.281Z,54.28
2022-11-21T05:18:36.232Z,55.05
2022-11-21T05:21:38.982Z,42.88
2022-11-21T05:24:41.425Z,62.17
2022-11-21T05:27:44.963Z,66.32
2022-11-21T05:30:47.921Z,61.75
2022-11-21T05:33:50.372Z,70.30
2022-11-21T05:36:59.217Z,77.85
2022-11-21T05:40:01.934Z,65.90
2022-11-21T05:43:23.264Z,57.47
2022-11-21T05:46:27.005Z,66.75
2022-11-21T05:49:30.072Z,64.43
2022-11-21T05:52:32.534Z,69.13
2022-11-21T05:55:35.471Z,67.45
2022-11-21T05:58:38.125Z,48.42
2022-11-21T06:01:59.378Z,64.63
2022-11-21T06:05:02.217Z,60.70
2022-11-21T06:08:05.207Z,52.08
2022-11-21T06:11:08.883Z,60.05
2022-11-21T06:17:13.852Z,73.07
2022-11-21T06:20:16.494Z,58.27
2022-11-21T06:23:19.851Z,57.30
2022-11-21T06:26:24.219Z,67.90
2022-11-21T06:29:26.805Z,59.97
2022-11-21T06:32:29.395Z,51.60
2022-11-21T06:35:32.424Z,63.72
2022-11-21T06:38:35.092Z,62.92
2022-11-21T06:41:37.485Z,67.77
2022-11-21T06:44:39.947Z,65.40
2022-11-21T06:47:42.813Z,287.05
2022-11-21T06:50:45.403Z,188.98
2022-11-21T06:53:48.786Z,131.27
2022-11-21T06:56:54.314Z,71.05
2022-11-21T06:59:56.551Z,62.67
2022-11-21T07:03:03.591Z,161.82
2022-11-21T07:06:07.397Z,83.15
2022-11-21T07:12:52.259Z,122.95
2022-11-21T07:15:56.857Z,69.20
2022-11-21T07:19:00.824Z,109.70
2022-11-21T07:22:03.370Z,112.70
2022-11-21T07:25:06.911Z,91.50
2022-11-21T07:28:10.459Z,84.47
2022-11-21T07:31:14.372Z,71.47
2022-11-21T07:34:16.997Z,70.68
2022-11-21T07:37:19.384Z,76.43
2022-11-21T07:40:22.218Z,51.77
2022-11-21T07:43:27.374Z,61.20
2022-11-21T07:46:31.959Z,87.70
2022-11-21T07:49:35.013Z,95.97
2022-11-21T07:52:37.977Z,52.78
2022-11-21T07:55:41.141Z,63.75
2022-11-21T07:58:43.919Z,73.38
2022-11-21T08:01:48.029Z,70.67
2022-11-21T08:04:50.603Z,83.82
2022-11-21T08:07:53.212Z,95.22
2022-11-21T08:10:55.624Z,70.45
2022-11-21T08:13:59.846Z,80.10
2022-11-21T08:17:02.183Z,69.88
2022-11-21T08:20:05.294Z,67.93
2022-11-21T08:23:08.083Z,49.03
2022-11-21T08:26:10.775Z,53.08
2022-11-21T08:29:15.522Z,76.00
2022-11-21T08:32:18.835Z,72.80
2022-11-21T08:35:21.302Z,68.97
2022-11-21T08:38:24.006Z,64.55
2022-11-21T08:41:45.379Z,76.43
2022-11-21T08:44:48.143Z,93.53
2022-11-21T08:47:50.737Z,58.10
2022-11-21T08:50:53.560Z,95.55
2022-11-21T08:53:56.744Z,109.65
2022-11-21T08:56:59.606Z,71.72
2022-11-21T09:00:02.406Z,58.55
2022-11-21T09:03:06.110Z,74.45
2022-11-21T09:06:08.454Z,70.88
2022-11-21T09:09:11.003Z,71.20
2022-11-21T09:12:13.337Z,69.60
2022-11-21T09:15:34.355Z,61.60
2022-11-21T09:18:37.064Z,60.80
2022-11-21T09:21:39.450Z,63.95
2022-11-21T09:24:42.112Z,60.28
2022-11-21T09:27:44.914Z,57.58
2022-11-21T09:30:47.201Z,60.72
2022-11-21T09:33:54.813Z,64.03
2022-11-21T09:36:57.949Z,62.92
2022-11-21T09:40:01.147Z,64.40
2022-11-21T09:43:44.555Z,59.88
2022-11-21T09:46:48.776Z,64.40
2022-11-21T09:50:03.112Z,60.03
2022-11-21T09:53:37.818Z,59.25
2022-11-21T09:56:42.989Z,58.55
2022-11-21T09:59:47.131Z,58.63
2022-11-21T10:07:27.440Z,63.45
2022-11-21T10:10:51.613Z,65.13
2022-11-21T10:14:18.774Z,65.63
2022-11-21T10:17:39.566Z,63.03
2022-11-21T10:20:54.356Z,72.85
2022-11-21T10:24:07.721Z,81.65
2022-11-21T10:27:22.087Z,71.80
2022-11-21T10:30:24.533Z,75.55
2022-11-21T10:33:34.666Z,66.47
2022-11-21T10:36:38.699Z,69.80
2022-11-21T10:39:46.527Z,70.30
2022-11-21T10:43:46.632Z,64.20
2022-11-21T10:46:59.722Z,63.88
2022-11-21T10:50:40.038Z,60.50
2022-11-21T10:54:07.307Z,65.22
2022-11-21T10:57:17.861Z,63.03
2022-11-21T11:00:23.802Z,60.83
2022-11-21T11:03:26.129Z,65.60
2022-11-21T11:06:29.718Z,59.75
2022-11-21T11:09:34.475Z,66.10
2022-11-21T11:12:55.944Z,71.88
2022-11-21T11:16:24.910Z,78.25
2022-11-21T11:19:35.660Z,70.40
2022-11-21T11:22:42.750Z,70.28
2022-11-21T11:25:49.187Z,64.57
2022-11-21T11:28:53.341Z,66.72
2022-11-21T11:31:58.963Z,64.57
2022-11-21T11:35:03.236Z,76.53
2022-11-21T11:38:06.612Z,64.55
2022-11-21T11:41:26.411Z,71.38
2022-11-21T11:45:14.071Z,67.47
2022-11-21T11:48:17.766Z,63.65
2022-11-21T11:51:27.075Z,61.42
2022-11-21T11:54:47.111Z,69.85
2022-11-21T11:57:52.167Z,58.80
2022-11-21T12:01:01.631Z,64.78
2022-11-21T12:04:25.850Z,58.50
2022-11-21T12:11:25.068Z,58.47
2022-11-21T12:15:04.976Z,62.33
2022-11-21T12:18:16.705Z,72.63
2022-11-21T12:21:19.774Z,86.93
2022-11-21T12:24:22.614Z,87.60
2022-11-21T12:27:32.645Z,66.55
2022-11-21T12:30:46.311Z,59.42
2022-11-21T12:34:00.148Z,60.50
2022-11-21T12:37:05.141Z,67.25
2022-11-21T12:40:22.233Z,66.07
2022-11-21T12:43:24.769Z,73.75
2022-11-21T12:46:38.548Z,83.13
2022-11-21T12:53:36.289Z,65.37
2022-11-21T12:56:51.691Z,60.67
2022-11-21T13:00:40.023Z,62.10
2022-11-21T13:04:03.097Z,67.95
2022-11-21T13:07:06.663Z,57.08
2022-11-21T13:10:14.608Z,68.50
2022-11-21T13:13:26.863Z,102.43
2022-11-21T13:16:37.663Z,109.07
2022-11-21T13:20:28.756Z,63.17
2022-11-21T13:23:42.977Z,58.35
2022-11-21T13:26:50.721Z,72.13
2022-11-21T13:30:11.699Z,181.07
2022-11-21T13:33:35.979Z,155.10
2022-11-21T13:36:40.503Z,72.90
2022-11-21T13:39:43.871Z,87.97
2022-11-21T13:43:32.482Z,72.90
2022-11-21T13:47:01.534Z,66.97
2022-11-21T13:50:31.598Z,69.82
2022-11-21T13:53:58.482Z,62.28
2022-11-21T13:57:19.289Z,67.15
2022-11-21T14:00:55.652Z,66.60
2022-11-21T14:04:21.375Z,72.75
2022-11-21T14:07:34.718Z,74.45
2022-11-21T14:10:37.393Z,72.35
2022-11-21T14:13:40.025Z,81.25
2022-11-21T14:16:47.187Z,80.75
2022-11-21T14:19:50.620Z,81.85
2022-11-21T14:23:06.898Z,89.47
2022-11-21T14:26:16.192Z,94.22
2022-11-21T14:29:47.671Z,85.68
2022-11-21T14:32:54.399Z,81.22
2022-11-21T14:36:24.957Z,86.72
2022-11-21T14:39:37.748Z,78.88
2022-11-21T14:42:41.367Z,99.60
2022-11-21T14:45:50.374Z,83.28
2022-11-21T14:48:53.903Z,84.80
2022-11-21T14:52:00.080Z,74.82
2022-11-21T14:58:28.208Z,80.35
2022-11-21T15:01:32.822Z,82.88
2022-11-21T15:04:36.776Z,80.80
2022-11-21T15:07:48.218Z,88.45
2022-11-21T15:10:54.865Z,89.95
2022-11-21T15:14:17.555Z,78.90
2022-11-21T15:17:22.766Z,85.78
2022-11-21T15:20:26.300Z,95.45
2022-11-21T15:23:47.280Z,86.53
2022-11-21T15:26:52.637Z,86.07
2022-11-21T15:30:03.353Z,74.70
2022-11-21T15:33:11.595Z,75.90
2022-11-21T15:36:15.465Z,68.85
2022-11-21T15:39:23.031Z,74.65
2022-11-21T15:42:35.453Z,69.68
2022-11-21T15:45:39.144Z,76.70
2022-11-21T15:55:21.727Z,70.38
2022-11-21T15:58:24.698Z,71.30
2022-11-21T16:01:33.110Z,77.43
2022-11-21T16:04:36.782Z,79.20
2022-11-21T16:10:42.226Z,78.38
2022-11-21T16:13:49.836Z,69.80
2022-11-21T16:16:52.509Z,69.90
2022-11-21T16:19:55.472Z,69.18
2022-11-21T16:22:58.273Z,60.70
2022-11-21T16:26:01.263Z,53.70
2022-11-21T16:29:06.659Z,74.63
2022-11-21T16:32:09.822Z,74.55
2022-11-21T16:35:12.298Z,83.00
2022-11-21T16:38:16.229Z,74.25
2022-11-21T16:41:20.189Z,71.55
2022-11-21T16:44:22.547Z,78.47
2022-11-21T16:47:24.922Z,69.50
2022-11-21T16:50:27.392Z,74.50
2022-11-21T16:53:31.276Z,72.65
2022-11-21T16:56:34.736Z,68.78
2022-11-21T16:59:38.311Z,69.40
2022-11-21T17:02:41.009Z,58.22
2022-11-21T17:05:43.225Z,68.45
2022-11-21T17:08:47.160Z,69.40
2022-11-21T17:11:49.747Z,75.20
2022-11-21T17:14:55.101Z,73.55
2022-11-21T17:18:01.543Z,71.80
2022-11-21T17:21:09.206Z,65.00
2022-11-21T17:24:14.880Z,70.90
2022-11-21T17:27:18.676Z,64.88
2022-11-21T17:30:22.831Z,61.67
2022-11-21T17:33:26.008Z,67.00
2022-11-21T17:36:29.713Z,53.80
2022-11-21T17:39:32.522Z,74.07
2022-11-21T17:42:35.435Z,66.63
2022-11-21T17:45:38.452Z,67.43
2022-11-21T17:48:41.336Z,67.60
2022-11-21T17:51:44.266Z,67.13
2022-11-21T17:54:47.163Z,70.05
2022-11-21T17:57:49.770Z,83.70
2022-11-21T18:01:00.338Z,93.75
2022-11-21T18:04:11.679Z,76.95
2022-11-21T18:07:17.855Z,66.95
2022-11-21T18:10:42.319Z,66.73
2022-11-21T18:13:44.721Z,60.78
2022-11-21T18:16:52.784Z,63.70
2022-11-21T18:19:56.218Z,62.50
2022-11-21T18:22:59.234Z,61.88
2022-11-21T18:26:06.788Z,65.82
2022-11-21T18:29:35.195Z,64.40
2022-11-21T18:32:35.540Z,70.97
2022-11-21T18:35:37.854Z,78.88
2022-11-21T18:38:53.639Z,71.55
2022-11-21T18:42:00.779Z,72.82
2022-11-21T18:45:04.750Z,102.65
2022-11-21T18:48:07.186Z,76.80
2022-11-21T18:51:22.310Z,85.88
2022-11-21T18:54:26.226Z,123.75
2022-11-21T19:00:33.442Z,276.10
2022-11-21T19:03:36.414Z,133.40
2022-11-21T19:06:39.161Z,100.97
2022-11-21T19:09:41.856Z,126.78
2022-11-21T19:12:45.375Z,108.78
2022-11-21T19:15:48.207Z,81.47
2022-11-21T19:19:25.995Z,76.57
2022-11-21T19:22:14.270Z,73.95
2022-11-21T19:25:16.934Z,81.53
2022-11-21T19:28:19.870Z,75.28
2022-11-21T19:31:29.688Z,88.93
2022-11-21T19:34:33.506Z,72.85
2022-11-21T19:37:36.798Z,100.93
2022-11-21T19:40:58.206Z,71.57
2022-11-21T19:44:01.941Z,76.82
2022-11-21T19:50:07.753Z,88.07
2022-11-21T19:53:10.220Z,80.47
2022-11-21T19:56:19.775Z,89.95
2022-11-21T19:59:22.909Z,82.53
2022-11-21T20:02:25.655Z,70.07
2022-11-21T20:05:29.440Z,68.53
2022-11-21T20:08:31.898Z,161.70
2022-11-21T20:11:35.544Z,160.15
2022-11-21T20:14:38.016Z,185.68
2022-11-21T20:17:40.706Z,97.22
2022-11-21T20:20:43.523Z,108.47
2022-11-21T20:23:46.552Z,112.70
2022-11-21T20:26:49.128Z,93.32
2022-11-21T20:29:53.022Z,98.57
2022-11-21T20:32:55.507Z,87.82
2022-11-21T20:36:03.910Z,105.43
2022-11-21T20:39:08.922Z,68.78
2022-11-21T20:42:12.787Z,109.07
2022-11-21T20:48:38.902Z,64.35
2022-11-21T20:53:36.619Z,58.25
2022-11-21T20:55:07.474Z,59.75
2022-11-21T20:58:10.423Z,56.37
2022-11-21T21:01:15.306Z,62.47
2022-11-21T21:04:18.192Z,60.08
2022-11-21T21:07:20.928Z,57.88
2022-11-21T21:10:25.742Z,56.17
2022-11-21T21:13:29.363Z,59.25
2022-11-21T21:16:34.550Z,55.10
2022-11-21T21:19:36.956Z,59.35
2022-11-21T21:22:39.777Z,60.67
2022-11-21T21:25:42.941Z,59.55
2022-11-21T21:28:46.143Z,43.95
2022-11-21T21:31:52.858Z,44.35
2022-11-21T21:34:56.339Z,64.35
2022-11-21T21:37:58.723Z,62.47
2022-11-21T21:41:01.980Z,60.30
2022-11-21T21:44:04.520Z,48.78
2022-11-21T21:47:11.264Z,60.15
2022-11-21T21:50:16.011Z,56.95
2022-11-21T21:53:19.409Z,60.30
2022-11-21T21:56:22.667Z,64.10
2022-11-21T21:59:25.863Z,47.05
2022-11-21T22:02:28.547Z,48.35
2022-11-21T22:05:32.546Z,63.17
2022-11-21T22:08:36.746Z,60.78
2022-11-21T22:11:40.034Z,63.30
2022-11-21T22:14:42.325Z,48.75
2022-11-21T22:17:45.037Z,57.97
2022-11-21T22:20:48.781Z,61.92
2022-11-21T22:24:17.778Z,63.25
2022-11-21T22:27:15.884Z,61.72
2022-11-21T22:30:18.812Z,61.83
2022-11-21T22:33:21.266Z,66.63
2022-11-21T22:36:24.014Z,60.40
2022-11-21T22:39:27.849Z,45.85
2022-11-21T22:42:31.425Z,62.05
2022-11-21T22:45:35.384Z,66.50
2022-11-21T22:48:38.627Z,61.65
2022-11-21T22:51:41.045Z,47.38
2022-11-21T22:54:43.692Z,62.22
2022-11-21T22:57:46.147Z,63.20
2022-11-21T23:00:49.125Z,63.38
2022-11-21T23:03:52.789Z,61.97
2022-11-21T23:06:55.519Z,63.25
2022-11-21T23:10:01.560Z,63.53
2022-11-21T23:13:03.982Z,65.05
2022-11-21T23:16:07.252Z,64.15
2022-11-21T23:19:09.619Z,61.58
2022-11-21T23:22:13.882Z,63.53
2022-11-21T23:25:19.412Z,61.83
2022-11-21T23:28:22.369Z,61.97
2022-11-21T23:31:24.792Z,65.85
2022-11-21T23:34:27.769Z,65.88
2022-11-21T23:37:30.171Z,64.23
2022-11-21T23:40:33.418Z,55.92
2022-11-21T23:43:35.911Z,51.22
2022-11-21T23:46:38.488Z,60.22
2022-11-21T23:49:43.731Z,64.30
2022-11-21T23:52:50.138Z,70.50
2022-11-21T23:55:52.615Z,71.82
2022-11-21T23:58:55.440Z,65.70
